Terminal Aerodrome Forecast
Issued by NWS Albuquerque, NM

Current Version | Previous Version | Text Only | Print | Product List | Glossary On
Versions: 1 2 3 4 5 6 7 8 9 10 11
000
FTUS45 KABQ 011700
TAFABQ
TAF
KABQ 011736Z 0118/0218 27022G32KT P6SM FEW080
     FM020100 24010KT P6SM SKC
     FM020500 15006KT P6SM SKC
     FM021700 23012G22KT P6SM SKC=

USA.gov is the U.S. government's official web portal to all federal, state and local government web resources and services.